SBCJ/CKS METAR and TAF weather

Enter ICAO airport designator
Station Type Date Time Source
SBCJ METAR 2020/07/10 23:00 UTC NOAA

SBCJ 102300Z 00000KT CAVOK 21/18 Q1016


Station Type Date Time Source
SBCJ Decoded METAR 2020/07/10 23:00 UTC NOAA

Carajas / Maraba, Brazil (SBCJ) 06-07S 050-00W
Jul 10, 2020 - 07:00 PM EDT / 2020.07.10 2300 UTC
Wind: Calm:0
Visibility: greater than 7 mile(s):0
Temperature: 69 F (21 C)
Dew Point: 64 F (18 C)
Relative Humidity: 82%
Pressure (altimeter): 30.00 in. Hg (1016 hPa)
ob: SBCJ 102300Z 00000KT CAVOK 21/18 Q1016
cycle: 23

Station Type Date Time Source
SBCJ TAF 2020/07/10 18:42 UTC NOAA

TAF TAF SBCJ 101500Z 1018/1106 13005KT 9999 SCT030 TX30/1018Z TN18/1106Z
BECMG 1019/1021 00000KT CAVOK
RMK PDY

Example: see airport list